createdAt,value
2022-07-28T00:09:21.029Z,0.68
2022-07-28T00:19:22.933Z,0.80
2022-07-28T00:29:24.449Z,0.47
2022-07-28T00:39:46.948Z,0.57
2022-07-28T00:49:50.005Z,0.43
2022-07-28T00:59:52.663Z,1.10
2022-07-28T01:10:04.630Z,0.70
2022-07-28T01:20:15.155Z,0.82
2022-07-28T01:30:30.967Z,0.70
2022-07-28T01:40:36.630Z,0.60
2022-07-28T01:50:39.487Z,0.60
2022-07-28T02:00:42.327Z,0.80
2022-07-28T02:11:09.884Z,0.50
2022-07-28T02:21:13.569Z,0.60
2022-07-28T02:31:33.303Z,0.85
2022-07-28T02:41:42.111Z,0.82
2022-07-28T02:51:47.170Z,0.70
2022-07-28T03:01:51.270Z,0.50
2022-07-28T03:11:57.172Z,0.60
2022-07-28T03:21:58.491Z,0.80
2022-07-28T03:32:02.426Z,0.77
2022-07-28T03:42:05.528Z,0.70
2022-07-28T03:52:07.570Z,1.10
2022-07-28T04:02:11.043Z,0.70
2022-07-28T04:12:13.148Z,0.60
2022-07-28T04:22:14.810Z,0.90
2022-07-28T04:32:16.896Z,0.90
2022-07-28T04:42:18.267Z,0.68
2022-07-28T04:52:20.950Z,0.60
2022-07-28T05:02:23.993Z,0.93
2022-07-28T05:12:26.628Z,1.05
2022-07-28T05:22:28.669Z,0.63
2022-07-28T05:32:30.353Z,0.70
2022-07-28T05:42:38.449Z,0.63
2022-07-28T05:52:40.105Z,0.67
2022-07-28T06:02:42.422Z,0.70
2022-07-28T06:12:50.430Z,0.82
2022-07-28T06:22:56.968Z,1.00
2022-07-28T06:32:59.012Z,0.98
2022-07-28T06:43:00.850Z,1.10
2022-07-28T06:53:02.171Z,1.05
2022-07-28T07:03:09.868Z,1.15
2022-07-28T07:13:13.879Z,1.02
2022-07-28T07:23:16.289Z,1.20
2022-07-28T07:33:17.698Z,1.15
2022-07-28T07:43:20.254Z,1.50
2022-07-28T07:53:21.967Z,1.15
2022-07-28T08:03:23.568Z,1.17
2022-07-28T08:13:36.672Z,1.58
2022-07-28T08:23:38.315Z,1.20
2022-07-28T08:33:53.491Z,0.98
2022-07-28T08:43:59.650Z,1.10
2022-07-28T08:54:02.450Z,1.45
2022-07-28T09:04:07.139Z,1.08
2022-07-28T09:14:11.468Z,1.27
2022-07-28T09:24:36.076Z,1.15
2022-07-28T09:34:54.569Z,1.30
2022-07-28T09:45:22.956Z,1.67
2022-07-28T09:55:25.928Z,1.05
2022-07-28T10:05:43.548Z,0.93
2022-07-28T10:16:04.215Z,1.30
2022-07-28T10:26:13.489Z,1.40
2022-07-28T10:36:21.216Z,1.05
2022-07-28T10:46:24.269Z,1.50
2022-07-28T10:56:59.107Z,1.20
2022-07-28T11:07:21.987Z,0.93
2022-07-28T11:17:33.511Z,1.30
2022-07-28T11:27:50.784Z,1.23
2022-07-28T11:38:05.030Z,0.98
2022-07-28T11:48:29.010Z,1.15
2022-07-28T11:58:31.408Z,1.38
2022-07-28T12:08:53.150Z,0.98
2022-07-28T12:18:56.453Z,0.98
2022-07-28T12:28:58.388Z,1.10
2022-07-28T12:39:00.355Z,1.00
2022-07-28T12:49:05.220Z,1.10
2022-07-28T12:59:17.887Z,1.08
2022-07-28T13:09:32.979Z,1.35
2022-07-28T13:19:38.229Z,1.55
2022-07-28T13:29:40.711Z,1.30
2022-07-28T13:39:42.447Z,0.82
2022-07-28T13:49:45.232Z,1.10
2022-07-28T13:59:47.354Z,1.52
2022-07-28T14:09:49.687Z,1.08
2022-07-28T14:19:52.390Z,2.00
2022-07-28T14:29:54.046Z,1.15
2022-07-28T14:39:55.429Z,2.08
2022-07-28T14:49:58.900Z,1.48
2022-07-28T15:00:01.249Z,1.33
2022-07-28T15:10:03.184Z,1.40
2022-07-28T15:20:09.328Z,1.13
2022-07-28T15:40:16.091Z,1.42
2022-07-28T15:50:17.627Z,1.25
2022-07-28T16:01:33.568Z,1.58
2022-07-28T16:11:37.879Z,0.90
2022-07-28T16:21:42.059Z,1.10
2022-07-28T16:31:50.890Z,1.35
2022-07-28T16:41:53.209Z,1.45
2022-07-28T16:51:56.237Z,1.35
2022-07-28T17:02:00.174Z,2.33
2022-07-28T17:12:02.737Z,3.42
2022-07-28T17:22:09.442Z,5.63
2022-07-28T17:32:16.451Z,2.28
2022-07-28T17:42:19.677Z,1.63
2022-07-28T17:52:21.914Z,1.38
2022-07-28T18:02:25.263Z,1.40
2022-07-28T18:12:28.297Z,1.48
2022-07-28T18:42:23.571Z,1.40
2022-07-28T18:52:25.512Z,1.40
2022-07-28T19:02:28.030Z,2.05
2022-07-28T19:12:33.026Z,1.40
2022-07-28T19:22:34.408Z,1.90
2022-07-28T19:32:36.111Z,1.80
2022-07-28T19:42:38.438Z,1.75
2022-07-28T19:52:40.150Z,1.42
2022-07-28T20:02:46.006Z,2.00
2022-07-28T20:12:49.250Z,1.70
2022-07-28T20:22:50.816Z,2.50
2022-07-28T20:32:56.189Z,1.60
2022-07-28T20:42:57.850Z,2.25
2022-07-28T20:52:59.408Z,1.63
2022-07-28T21:03:01.737Z,1.45
2022-07-28T21:13:03.650Z,1.70
2022-07-28T21:23:10.010Z,1.98
2022-07-28T21:33:12.689Z,1.75
2022-07-28T21:43:25.347Z,1.70
2022-07-28T21:53:27.828Z,1.85
2022-07-28T22:03:30.747Z,1.48
2022-07-28T22:13:32.529Z,1.58
2022-07-28T22:23:34.206Z,1.63
2022-07-28T22:33:35.948Z,1.60
2022-07-28T22:43:39.047Z,1.73
2022-07-28T22:53:40.989Z,1.75
2022-07-28T23:03:42.881Z,1.75
2022-07-28T23:13:47.267Z,1.80
2022-07-28T23:23:49.410Z,1.83
2022-07-28T23:33:55.376Z,2.30
2022-07-28T23:43:59.529Z,1.73
2022-07-28T23:54:00.893Z,2.05
